Hlavní strana
METAR-TAF:

METAR-TAF

Letiště :

Kristianstad, Švédsko

zeměpisná šířka: 55-55N, zeměpisná délka: 014-05E, výška: 23 m

Aktuální stav počasí

Zpráva byla vytvořena před 22 minutami, v 00:20 UTC
Jihozápadní vítr 15 kt s nárazy do 27 kt
Teplota 3°C
Vlhkost vzduchu 87%
Tlak 980 hPa
Viditelnost 10 km a více
kouřmo

METAR: ESMK 260020Z AUTO 23015G27KT 9999 BR OVC012/// 03/01 Q0980

Čas: 01:42 (00:42 UTC)

Předpověď počasí

Zpráva byla vytvořena před 7 hodinami a 20 minutami, v 17:22 UTC
Předpověď platná od 25 v 18 UTC do 25 v 20 UTC
Jihozápadní vítr 15 kt
Viditelnost 10 km a více
Oblačno až skoro zataženo ve výšce 2000 ft
Dočasný
od 25 v 18 UTC do 25 v 20 UTC
Jihozápadní vítr 18 kt s nárazy do 35 kt
Viditelnost: 4000 m
Oblačno až skoro zataženo ve výšce 1000 ft
Polojasno ve výšce 2000 ft, Cumulonimbus.
déšť, mrholení, sníh

TAF: ESMK 251722Z 2518/2520 22015KT 9999 BKN020 TEMPO 2518/2520 23018G35KT 4000 RADZSN BKN010 SCT020CB

Stav a předpovědi počasí z více než 4 000 letišť (zprávy METAR a TAF).

Červené a žluté tečky na mapě představují dostupné meteorologické stanice.

Když kurzor umístíte na tečku, zobrazí se název stanice.

Pak kliknutím zobrazíte stav a předpověď počasí.

Chcete-li změnit mapu, kliknutím na zelené tlačítko se znaménkem +mapu přiblížíte, kliknutím na zelené tlačítko se znaménkem – mapu oddálíte a kliknutím na zelené šipky přejdete na sousední mapy.


METAR-TAF: